createdAt,value
2022-07-30T00:01:44.033Z,100.00
2022-07-30T00:04:11.987Z,100.00
2022-07-30T00:06:41.487Z,100.00
2022-07-30T00:09:09.421Z,100.00
2022-07-30T00:11:37.312Z,100.00
2022-07-30T00:14:05.265Z,100.00
2022-07-30T00:16:33.587Z,100.00
2022-07-30T00:19:01.748Z,100.00
2022-07-30T00:21:36.286Z,100.00
2022-07-30T00:24:09.018Z,100.00
2022-07-30T00:26:36.807Z,100.00
2022-07-30T00:29:04.829Z,100.00
2022-07-30T00:31:33.095Z,100.00
2022-07-30T00:34:00.926Z,100.00
2022-07-30T00:36:28.759Z,100.00
2022-07-30T00:38:57.030Z,100.00
2022-07-30T00:41:26.680Z,100.00
2022-07-30T00:43:54.546Z,100.00
2022-07-30T00:46:22.339Z,100.00
2022-07-30T00:48:50.317Z,100.00
2022-07-30T00:51:18.530Z,100.00
2022-07-30T00:53:46.381Z,100.00
2022-07-30T00:56:14.437Z,100.00
2022-07-30T00:58:43.963Z,100.00
2022-07-30T01:01:11.840Z,100.00
2022-07-30T01:03:39.750Z,100.00
2022-07-30T01:06:14.255Z,100.00
2022-07-30T01:08:43.257Z,100.00
2022-07-30T01:11:11.153Z,100.00
2022-07-30T01:13:39.231Z,100.00
2022-07-30T01:16:08.527Z,100.00
2022-07-30T01:18:50.614Z,100.00
2022-07-30T01:21:19.693Z,100.00
2022-07-30T01:23:47.522Z,100.00
2022-07-30T01:26:18.418Z,100.00
2022-07-30T01:28:47.736Z,100.00
2022-07-30T01:31:15.632Z,100.00
2022-07-30T01:33:44.355Z,100.00
2022-07-30T01:36:14.719Z,100.00
2022-07-30T01:38:42.940Z,100.00
2022-07-30T01:41:10.818Z,100.00
2022-07-30T01:43:40.078Z,100.00
2022-07-30T01:46:08.026Z,100.00
2022-07-30T01:48:37.374Z,100.00
2022-07-30T01:51:06.308Z,100.00
2022-07-30T01:53:35.508Z,100.00
2022-07-30T01:56:03.430Z,100.00
2022-07-30T01:58:33.862Z,100.00
2022-07-30T02:01:03.163Z,100.00
2022-07-30T02:03:31.550Z,100.00
2022-07-30T02:06:00.378Z,100.00
2022-07-30T02:08:31.405Z,100.00
2022-07-30T02:11:09.487Z,100.00
2022-07-30T02:13:40.038Z,100.00
2022-07-30T02:16:12.035Z,100.00
2022-07-30T02:18:41.631Z,100.00
2022-07-30T02:21:10.847Z,100.00
2022-07-30T02:23:43.419Z,100.00
2022-07-30T02:26:11.304Z,100.00
2022-07-30T02:28:40.170Z,100.00
2022-07-30T02:31:17.512Z,100.00
2022-07-30T02:33:49.031Z,100.00
2022-07-30T02:36:17.256Z,100.00
2022-07-30T02:38:45.085Z,100.00
2022-07-30T02:41:12.864Z,100.00
2022-07-30T02:43:41.408Z,100.00
2022-07-30T02:46:11.119Z,100.00
2022-07-30T02:48:39.434Z,100.00
2022-07-30T02:51:07.216Z,100.00
2022-07-30T02:53:35.230Z,100.00
2022-07-30T02:56:03.232Z,100.00
2022-07-30T02:58:31.033Z,100.00
2022-07-30T03:00:59.163Z,100.00
2022-07-30T03:03:29.526Z,100.00
2022-07-30T03:05:57.462Z,100.00
2022-07-30T03:08:25.605Z,100.00
2022-07-30T03:10:54.327Z,100.00
2022-07-30T03:13:22.128Z,100.00
2022-07-30T03:15:51.086Z,100.00
2022-07-30T03:18:20.084Z,100.00
2022-07-30T03:20:50.770Z,100.00
2022-07-30T03:23:19.158Z,100.00
2022-07-30T03:25:47.432Z,100.00
2022-07-30T03:28:15.347Z,100.00
2022-07-30T03:30:43.997Z,100.00
2022-07-30T03:33:12.262Z,100.00
2022-07-30T03:35:40.973Z,100.00
2022-07-30T03:38:11.855Z,100.00
2022-07-30T03:40:39.931Z,100.00
2022-07-30T03:43:18.253Z,100.00
2022-07-30T03:45:56.373Z,100.00
2022-07-30T03:48:24.297Z,100.00
2022-07-30T03:50:53.349Z,100.00
2022-07-30T03:53:24.985Z,100.00
2022-07-30T03:55:53.130Z,100.00
2022-07-30T03:58:21.146Z,100.00
2022-07-30T04:00:49.319Z,100.00
2022-07-30T04:03:25.856Z,100.00
2022-07-30T04:05:53.709Z,100.00
2022-07-30T04:08:22.924Z,100.00
2022-07-30T04:10:51.320Z,100.00
2022-07-30T04:13:19.129Z,100.00
2022-07-30T04:16:37.623Z,100.00
2022-07-30T04:18:38.902Z,100.00
2022-07-30T04:21:07.323Z,100.00
2022-07-30T04:24:04.714Z,100.00
2022-07-30T04:26:34.109Z,100.00
2022-07-30T04:29:03.680Z,100.00
2022-07-30T04:31:38.158Z,100.00
2022-07-30T04:34:09.317Z,100.00
2022-07-30T04:36:37.318Z,100.00
2022-07-30T04:39:06.540Z,100.00
2022-07-30T04:41:48.704Z,100.00
2022-07-30T04:44:17.155Z,100.00
2022-07-30T04:46:44.983Z,100.00
2022-07-30T04:49:13.197Z,100.00
2022-07-30T04:51:41.066Z,100.00
2022-07-30T04:54:15.337Z,100.00
2022-07-30T04:56:52.494Z,100.00
2022-07-30T04:59:22.782Z,100.00
2022-07-30T05:01:50.755Z,100.00
2022-07-30T05:04:18.643Z,100.00
2022-07-30T05:06:46.851Z,100.00
2022-07-30T05:09:17.023Z,100.00
2022-07-30T05:11:51.326Z,100.00
2022-07-30T05:14:19.170Z,100.00
2022-07-30T05:16:47.334Z,100.00
2022-07-30T05:19:15.206Z,100.00
2022-07-30T05:21:42.980Z,100.00
2022-07-30T05:24:10.768Z,100.00
2022-07-30T05:26:40.294Z,100.00
2022-07-30T05:29:08.269Z,100.00
2022-07-30T05:31:37.460Z,100.00
2022-07-30T05:34:06.132Z,100.00
2022-07-30T05:36:34.004Z,100.00
2022-07-30T05:39:03.635Z,100.00
2022-07-30T05:41:33.883Z,100.00
2022-07-30T05:44:03.134Z,100.00
2022-07-30T05:46:31.389Z,100.00
2022-07-30T05:48:59.351Z,100.00
2022-07-30T05:51:27.496Z,100.00
2022-07-30T05:53:55.304Z,100.00
2022-07-30T05:56:23.069Z,100.00
2022-07-30T05:58:51.112Z,100.00
2022-07-30T06:01:20.315Z,100.00
2022-07-30T06:03:48.126Z,100.00
2022-07-30T06:06:19.711Z,100.00
2022-07-30T06:08:51.185Z,100.00
2022-07-30T06:11:19.196Z,100.00
2022-07-30T06:13:47.319Z,100.00
2022-07-30T06:16:15.218Z,100.00
2022-07-30T06:18:44.440Z,100.00
2022-07-30T06:21:12.393Z,100.00
2022-07-30T06:23:40.310Z,100.00
2022-07-30T06:26:08.097Z,100.00
2022-07-30T06:28:38.739Z,100.00
2022-07-30T06:31:07.417Z,100.00
2022-07-30T06:33:35.353Z,100.00
2022-07-30T06:36:05.426Z,100.00
2022-07-30T06:38:33.229Z,100.00
2022-07-30T06:41:02.802Z,100.00
2022-07-30T06:43:32.671Z,100.00
2022-07-30T06:46:00.845Z,100.00
2022-07-30T06:48:28.778Z,100.00
2022-07-30T06:50:56.573Z,100.00
2022-07-30T06:53:25.759Z,100.00
2022-07-30T06:55:56.811Z,100.00
2022-07-30T06:58:28.551Z,100.00
2022-07-30T07:00:56.641Z,100.00
2022-07-30T07:03:26.285Z,100.00
2022-07-30T07:06:07.788Z,100.00
2022-07-30T07:08:38.397Z,100.00
2022-07-30T07:11:06.373Z,100.00
2022-07-30T07:13:34.226Z,100.00
2022-07-30T07:16:02.299Z,100.00
2022-07-30T07:18:30.158Z,100.00
2022-07-30T07:20:57.956Z,100.00
2022-07-30T07:23:25.709Z,100.00
2022-07-30T07:26:11.823Z,100.00
2022-07-30T07:28:40.866Z,100.00
2022-07-30T07:31:08.799Z,100.00
2022-07-30T07:33:36.621Z,100.00
2022-07-30T07:36:04.805Z,100.00
2022-07-30T07:38:32.595Z,100.00
2022-07-30T07:41:00.394Z,100.00
2022-07-30T07:43:29.633Z,100.00
2022-07-30T07:45:57.759Z,100.00
2022-07-30T07:48:25.576Z,100.00
2022-07-30T07:50:57.032Z,100.00
2022-07-30T07:53:27.915Z,100.00
2022-07-30T07:55:55.730Z,100.00
2022-07-30T07:58:26.438Z,100.00
2022-07-30T08:00:56.107Z,100.00
2022-07-30T08:03:24.322Z,100.00
2022-07-30T08:05:59.071Z,100.00
2022-07-30T08:08:34.049Z,100.00
2022-07-30T08:11:02.187Z,100.00
2022-07-30T08:13:48.372Z,100.00
2022-07-30T08:16:19.404Z,100.00
2022-07-30T08:18:47.335Z,100.00
2022-07-30T08:21:15.457Z,100.00
2022-07-30T08:23:43.404Z,100.00
2022-07-30T08:26:11.789Z,100.00
2022-07-30T08:28:40.404Z,100.00
2022-07-30T08:31:08.223Z,100.00
2022-07-30T08:33:37.377Z,100.00
2022-07-30T08:36:09.581Z,100.00
2022-07-30T08:38:39.079Z,100.00
2022-07-30T08:41:08.993Z,100.00
2022-07-30T08:43:39.209Z,100.00
2022-07-30T08:46:10.460Z,100.00
2022-07-30T08:48:39.853Z,100.00
2022-07-30T08:51:07.717Z,100.00
2022-07-30T08:53:35.889Z,100.00
2022-07-30T08:56:03.860Z,100.00
2022-07-30T08:58:34.661Z,100.00
2022-07-30T09:01:04.630Z,100.00
2022-07-30T09:03:35.676Z,100.00
2022-07-30T09:06:13.801Z,100.00
2022-07-30T09:08:41.689Z,100.00
2022-07-30T09:11:09.463Z,100.00
2022-07-30T09:13:38.736Z,100.00
2022-07-30T09:16:07.050Z,100.00
2022-07-30T09:18:35.845Z,100.00
2022-07-30T09:21:17.325Z,100.00
2022-07-30T09:23:56.849Z,100.00
2022-07-30T09:26:24.790Z,100.00
2022-07-30T09:28:52.820Z,100.00
2022-07-30T09:31:20.993Z,100.00
2022-07-30T09:33:48.919Z,100.00
2022-07-30T09:36:19.279Z,100.00
2022-07-30T09:38:48.778Z,100.00
2022-07-30T09:41:37.683Z,100.00
2022-07-30T09:44:06.352Z,100.00
2022-07-30T09:46:45.427Z,100.00
2022-07-30T09:49:17.352Z,100.00
2022-07-30T09:51:54.547Z,100.00
2022-07-30T09:54:51.053Z,100.00
2022-07-30T09:57:27.178Z,100.00
2022-07-30T09:59:56.954Z,100.00
2022-07-30T10:02:32.201Z,100.00
2022-07-30T10:05:10.314Z,100.00
2022-07-30T10:07:52.426Z,100.00
2022-07-30T10:10:25.602Z,100.00
2022-07-30T10:12:55.758Z,100.00
2022-07-30T10:15:24.205Z,100.00
2022-07-30T10:17:51.993Z,100.00
2022-07-30T10:20:19.955Z,100.00
2022-07-30T10:22:50.571Z,100.00
2022-07-30T10:25:20.896Z,100.00
2022-07-30T10:27:51.082Z,100.00
2022-07-30T10:30:28.185Z,100.00
2022-07-30T10:32:58.336Z,100.00
2022-07-30T10:35:34.779Z,100.00
2022-07-30T10:38:09.596Z,100.00
2022-07-30T10:40:44.500Z,100.00
2022-07-30T10:43:33.351Z,100.00
2022-07-30T10:46:09.292Z,100.00
2022-07-30T10:48:52.260Z,100.00
2022-07-30T10:51:25.498Z,100.00
2022-07-30T10:54:03.887Z,100.00
2022-07-30T10:56:31.713Z,100.00
2022-07-30T10:59:03.320Z,100.00
2022-07-30T11:02:11.242Z,100.00
2022-07-30T11:04:39.700Z,100.00
2022-07-30T11:07:30.112Z,100.00
2022-07-30T11:10:05.934Z,100.00
2022-07-30T11:12:56.552Z,100.00
2022-07-30T11:15:24.927Z,100.00
2022-07-30T11:18:12.383Z,100.00
2022-07-30T11:20:41.114Z,100.00
2022-07-30T11:23:14.250Z,100.00
2022-07-30T11:25:50.064Z,100.00
2022-07-30T11:28:37.108Z,100.00
2022-07-30T11:31:10.139Z,100.00
2022-07-30T11:33:39.138Z,100.00
2022-07-30T11:36:10.566Z,100.00
2022-07-30T11:39:05.426Z,100.00
2022-07-30T11:41:36.714Z,100.00
2022-07-30T11:44:27.018Z,100.00
2022-07-30T11:46:55.105Z,100.00
2022-07-30T11:49:23.861Z,100.00
2022-07-30T11:51:52.164Z,100.00
2022-07-30T11:54:21.103Z,100.00
2022-07-30T11:56:54.457Z,100.00
2022-07-30T11:59:22.842Z,100.00
2022-07-30T12:01:52.138Z,100.00
2022-07-30T12:04:20.267Z,100.00
2022-07-30T12:06:48.805Z,100.00
2022-07-30T12:09:23.802Z,100.00
2022-07-30T12:11:57.381Z,100.00
2022-07-30T12:14:25.918Z,100.00
2022-07-30T12:16:54.686Z,98.74
2022-07-30T12:19:22.769Z,99.70
2022-07-30T12:21:53.407Z,98.89
2022-07-30T12:24:25.907Z,96.77
2022-07-30T12:26:54.035Z,92.26
2022-07-30T12:29:23.533Z,91.30
2022-07-30T12:31:51.965Z,93.64
2022-07-30T12:34:23.442Z,91.90
2022-07-30T12:36:58.635Z,90.97
2022-07-30T12:39:34.039Z,86.29
2022-07-30T12:42:08.861Z,83.70
2022-07-30T12:44:39.724Z,81.87
2022-07-30T12:47:19.208Z,88.85
2022-07-30T12:49:53.426Z,90.08
2022-07-30T12:52:29.326Z,90.47
2022-07-30T12:55:06.760Z,87.17
2022-07-30T12:57:56.188Z,86.12
2022-07-30T13:00:26.471Z,87.43
2022-07-30T13:02:54.647Z,85.93
2022-07-30T13:05:23.419Z,84.10
2022-07-30T13:07:58.563Z,85.57
2022-07-30T13:10:34.979Z,87.26
2022-07-30T13:13:10.888Z,84.80
2022-07-30T13:15:40.618Z,80.95
2022-07-30T13:18:22.579Z,80.74
2022-07-30T13:20:50.632Z,80.85
2022-07-30T13:23:29.446Z,77.92
2022-07-30T13:26:04.387Z,78.79
2022-07-30T13:28:33.523Z,78.38
2022-07-30T13:31:03.430Z,78.32
2022-07-30T13:33:31.689Z,72.71
2022-07-30T13:35:59.778Z,66.01
2022-07-30T13:38:28.238Z,67.81
2022-07-30T13:41:01.922Z,67.68
2022-07-30T13:43:33.696Z,67.83
2022-07-30T13:46:04.178Z,71.34
2022-07-30T13:48:32.474Z,75.57
2022-07-30T13:51:01.416Z,70.11
2022-07-30T13:53:29.749Z,71.49
2022-07-30T13:55:59.528Z,70.56
2022-07-30T13:58:27.934Z,73.58
2022-07-30T14:00:56.611Z,69.27
2022-07-30T14:03:26.072Z,69.15
2022-07-30T14:05:54.622Z,68.92
2022-07-30T14:08:23.043Z,69.00
2022-07-30T14:10:51.195Z,67.68
2022-07-30T14:13:21.404Z,69.76
2022-07-30T14:15:49.988Z,70.25
2022-07-30T14:18:18.093Z,70.22
2022-07-30T14:20:48.947Z,71.36
2022-07-30T14:32:32.365Z,77.37
2022-07-30T14:35:00.930Z,75.82
2022-07-30T14:37:30.727Z,75.06
2022-07-30T14:39:58.981Z,72.02
2022-07-30T14:42:27.581Z,73.85
2022-07-30T14:44:57.082Z,73.25
2022-07-30T14:47:25.420Z,72.77
2022-07-30T14:49:54.449Z,72.98
2022-07-30T14:52:22.750Z,69.31
2022-07-30T14:55:37.216Z,71.52
2022-07-30T15:07:27.277Z,71.15
2022-07-30T15:09:55.424Z,71.19
2022-07-30T15:12:26.873Z,68.03
2022-07-30T15:14:55.351Z,70.67
2022-07-30T15:17:23.716Z,71.07
2022-07-30T15:19:51.836Z,67.68
2022-07-30T15:22:20.161Z,69.11
2022-07-30T15:24:49.994Z,68.02
2022-07-30T15:27:42.832Z,67.20
2022-07-30T15:36:47.150Z,68.34
2022-07-30T15:39:15.534Z,68.28
2022-07-30T15:41:45.060Z,70.66
2022-07-30T15:44:13.846Z,70.70
2022-07-30T15:46:41.822Z,72.30
2022-07-30T15:49:10.226Z,71.89
2022-07-30T15:51:38.406Z,72.46
2022-07-30T15:54:06.981Z,70.86
2022-07-30T15:56:35.662Z,72.63
2022-07-30T15:59:05.146Z,69.46
2022-07-30T16:01:33.127Z,69.09
2022-07-30T16:04:01.171Z,64.95
2022-07-30T16:06:29.276Z,67.92
2022-07-30T16:08:57.159Z,70.75
2022-07-30T16:11:25.160Z,71.48
2022-07-30T16:13:53.278Z,72.75
2022-07-30T16:16:22.942Z,71.75
2022-07-30T16:18:50.993Z,71.74
2022-07-30T16:21:19.031Z,72.45
2022-07-30T16:23:47.114Z,71.74
2022-07-30T16:26:15.043Z,72.03
2022-07-30T16:28:42.963Z,72.05
2022-07-30T16:31:10.802Z,72.43
2022-07-30T16:33:40.044Z,73.03
2022-07-30T16:36:08.680Z,74.29
2022-07-30T16:38:36.523Z,75.41
2022-07-30T16:41:04.732Z,75.57
2022-07-30T16:43:33.554Z,75.05
2022-07-30T16:46:01.494Z,75.58
2022-07-30T16:48:32.201Z,75.40
2022-07-30T16:51:01.571Z,75.70
2022-07-30T16:53:29.633Z,75.38
2022-07-30T16:55:58.507Z,75.65
2022-07-30T16:58:28.319Z,74.51
2022-07-30T17:00:59.031Z,74.91
2022-07-30T17:03:27.198Z,74.49
2022-07-30T17:05:55.728Z,75.26
2022-07-30T17:08:25.551Z,76.14
2022-07-30T17:10:53.464Z,75.89
2022-07-30T17:13:21.682Z,75.09
2022-07-30T17:15:49.653Z,76.95
2022-07-30T17:18:17.974Z,75.85
2022-07-30T17:20:45.891Z,76.28
2022-07-30T17:23:13.788Z,76.10
2022-07-30T17:25:43.069Z,75.34
2022-07-30T17:28:11.263Z,75.14
2022-07-30T17:30:39.297Z,75.35
2022-07-30T17:33:07.252Z,77.35
2022-07-30T17:35:35.166Z,79.55
2022-07-30T17:38:03.157Z,78.17
2022-07-30T17:40:31.967Z,78.56
2022-07-30T17:43:04.674Z,78.55
2022-07-30T17:45:32.935Z,78.51
2022-07-30T17:48:01.737Z,79.32
2022-07-30T17:50:30.050Z,79.41
2022-07-30T17:52:58.043Z,79.76
2022-07-30T17:55:27.996Z,80.05
2022-07-30T17:57:55.933Z,79.52
2022-07-30T18:00:25.679Z,79.29
2022-07-30T18:02:53.584Z,81.04
2022-07-30T18:05:21.429Z,81.73
2022-07-30T18:07:49.370Z,81.99
2022-07-30T18:10:17.253Z,81.85
2022-07-30T18:12:48.868Z,82.46
2022-07-30T18:18:31.556Z,83.50
2022-07-30T18:20:59.581Z,83.26
2022-07-30T18:23:34.001Z,84.36
2022-07-30T18:26:03.130Z,83.86
2022-07-30T18:28:31.309Z,84.31
2022-07-30T18:31:00.170Z,83.49
2022-07-30T18:33:30.631Z,83.96
2022-07-30T18:36:01.066Z,84.55
2022-07-30T18:38:31.265Z,85.24
2022-07-30T18:41:01.496Z,84.82
2022-07-30T18:43:47.814Z,85.29
2022-07-30T18:46:18.908Z,86.67
2022-07-30T18:48:48.791Z,85.77
2022-07-30T18:54:55.923Z,87.50
2022-07-30T18:57:24.142Z,87.70
2022-07-30T18:59:52.376Z,87.88
2022-07-30T19:02:20.304Z,88.50
2022-07-30T19:04:49.568Z,88.25
2022-07-30T19:07:17.431Z,87.74
2022-07-30T19:09:46.191Z,88.26
2022-07-30T19:12:14.165Z,87.97
2022-07-30T19:14:42.054Z,88.38
2022-07-30T19:17:14.205Z,88.32
2022-07-30T19:19:43.694Z,88.59
2022-07-30T19:24:59.964Z,89.88
2022-07-30T19:27:28.475Z,91.35
2022-07-30T19:30:01.464Z,91.18
2022-07-30T19:32:31.556Z,91.35
2022-07-30T19:34:59.409Z,91.19
2022-07-30T19:37:27.254Z,91.93
2022-07-30T19:39:58.719Z,91.65
2022-07-30T19:42:35.946Z,91.82
2022-07-30T19:45:12.070Z,92.53
2022-07-30T19:47:42.330Z,93.21
2022-07-30T19:50:11.225Z,93.28
2022-07-30T19:52:39.883Z,93.72
2022-07-30T19:55:30.624Z,94.43
2022-07-30T19:58:00.187Z,94.22
2022-07-30T20:00:30.221Z,93.90
2022-07-30T20:03:01.379Z,93.94
2022-07-30T20:05:31.253Z,94.85
2022-07-30T20:08:00.253Z,95.31
2022-07-30T20:10:28.048Z,95.31
2022-07-30T20:12:58.765Z,95.31
2022-07-30T20:15:26.636Z,95.80
2022-07-30T20:17:58.201Z,96.62
2022-07-30T20:20:26.602Z,96.41
2022-07-30T20:22:54.438Z,96.24
2022-07-30T20:25:22.837Z,96.68
2022-07-30T20:27:51.251Z,96.88
2022-07-30T20:30:25.174Z,96.82
2022-07-30T20:32:53.688Z,96.51
2022-07-30T20:35:23.777Z,96.34
2022-07-30T20:37:54.629Z,96.42
2022-07-30T20:40:23.692Z,96.91
2022-07-30T20:42:53.174Z,96.56
2022-07-30T20:45:24.686Z,96.78
2022-07-30T20:47:56.606Z,98.24
2022-07-30T20:53:12.648Z,98.10
2022-07-30T20:55:41.897Z,99.34
2022-07-30T20:58:16.772Z,98.20
2022-07-30T21:00:49.278Z,97.67
2022-07-30T21:03:18.378Z,98.11
2022-07-30T21:05:51.235Z,98.58
2022-07-30T21:08:21.380Z,99.32
2022-07-30T21:10:53.493Z,99.41
2022-07-30T21:13:24.902Z,98.47
2022-07-30T21:16:03.087Z,99.31
2022-07-30T21:18:32.838Z,100.00
2022-07-30T21:21:01.195Z,100.00
2022-07-30T21:23:33.024Z,100.00
2022-07-30T21:26:05.950Z,100.00
2022-07-30T21:28:38.690Z,100.00
2022-07-30T21:31:09.569Z,100.00
2022-07-30T21:33:37.861Z,100.00
2022-07-30T21:36:10.513Z,100.00
2022-07-30T21:38:39.183Z,100.00
2022-07-30T21:41:14.332Z,100.00
2022-07-30T21:43:43.461Z,100.00
2022-07-30T21:46:12.948Z,100.00
2022-07-30T21:48:41.226Z,100.00
2022-07-30T21:51:09.713Z,100.00
2022-07-30T21:53:46.539Z,100.00
2022-07-30T21:56:14.762Z,100.00
2022-07-30T21:58:44.248Z,100.00
2022-07-30T22:01:17.993Z,100.00
2022-07-30T22:04:04.568Z,100.00
2022-07-30T22:06:34.866Z,100.00
2022-07-30T22:09:09.909Z,100.00
2022-07-30T22:11:47.801Z,100.00
2022-07-30T22:14:15.717Z,100.00
2022-07-30T22:16:46.099Z,100.00
2022-07-30T22:19:15.279Z,100.00
2022-07-30T22:21:46.555Z,100.00
2022-07-30T22:24:26.236Z,100.00
2022-07-30T22:26:59.896Z,100.00
2022-07-30T22:29:34.386Z,100.00
2022-07-30T22:32:09.036Z,100.00
2022-07-30T22:34:37.106Z,100.00
2022-07-30T22:37:09.101Z,100.00
2022-07-30T22:39:50.588Z,100.00
2022-07-30T22:42:20.156Z,100.00
2022-07-30T22:44:48.320Z,100.00
2022-07-30T22:47:21.270Z,100.00
2022-07-30T22:50:06.705Z,100.00
2022-07-30T22:52:38.334Z,100.00
2022-07-30T22:55:09.190Z,100.00
2022-07-30T22:57:40.303Z,100.00
2022-07-30T23:00:11.005Z,100.00
2022-07-30T23:02:41.504Z,100.00
2022-07-30T23:05:10.275Z,100.00
2022-07-30T23:07:39.624Z,100.00
2022-07-30T23:10:17.250Z,100.00
2022-07-30T23:12:18.626Z,97.54
2022-07-30T23:12:48.422Z,100.00
2022-07-30T23:15:17.717Z,100.00
2022-07-30T23:17:48.405Z,100.00
2022-07-30T23:20:17.696Z,100.00
2022-07-30T23:22:46.732Z,100.00
2022-07-30T23:25:14.715Z,100.00
2022-07-30T23:27:42.705Z,100.00
2022-07-30T23:30:11.882Z,100.00
2022-07-30T23:32:40.499Z,100.00
2022-07-30T23:35:11.113Z,100.00
2022-07-30T23:37:48.361Z,100.00
2022-07-30T23:40:16.640Z,100.00
2022-07-30T23:42:44.467Z,100.00
2022-07-30T23:45:12.482Z,100.00
2022-07-30T23:48:01.089Z,100.00
2022-07-30T23:50:30.436Z,100.00
2022-07-30T23:52:58.561Z,100.00
2022-07-30T23:55:27.137Z,100.00
2022-07-30T23:57:55.248Z,100.00
